sensor_id;sensor_type;location;lat;lon;timestamp;temperature;humidity
9125;DHT22;4597;48.730;9.114;2023-02-01T00:02:23;5.00;99.90
9125;DHT22;4597;48.730;9.114;2023-02-01T00:04:49;5.00;99.90
9125;DHT22;4597;48.730;9.114;2023-02-01T00:07:14;5.00;99.90
9125;DHT22;4597;48.730;9.114;2023-02-01T00:09:40;5.10;99.90
9125;DHT22;4597;48.730;9.114;2023-02-01T00:12:05;5.00;99.90
9125;DHT22;4597;48.730;9.114;2023-02-01T00:14:31;5.00;99.90
9125;DHT22;4597;48.730;9.114;2023-02-01T00:17:06;5.00;99.90
9125;DHT22;4597;48.730;9.114;2023-02-01T00:19:33;5.00;99.90
9125;DHT22;4597;48.730;9.114;2023-02-01T00:21:58;5.00;99.90
9125;DHT22;4597;48.730;9.114;2023-02-01T00:24:24;5.00;99.90
9125;DHT22;4597;48.730;9.114;2023-02-01T00:26:49;5.00;99.90
9125;DHT22;4597;48.730;9.114;2023-02-01T00:29:17;5.10;99.90
9125;DHT22;4597;48.730;9.114;2023-02-01T00:31:43;5.10;99.90
9125;DHT22;4597;48.730;9.114;2023-02-01T00:34:12;5.10;99.90
9125;DHT22;4597;48.730;9.114;2023-02-01T00:36:38;5.20;99.90
9125;DHT22;4597;48.730;9.114;2023-02-01T00:39:04;5.10;99.90
9125;DHT22;4597;48.730;9.114;2023-02-01T00:41:29;5.10;99.90
9125;DHT22;4597;48.730;9.114;2023-02-01T00:43:55;5.20;99.90
9125;DHT22;4597;48.730;9.114;2023-02-01T00:46:20;5.10;99.90
9125;DHT22;4597;48.730;9.114;2023-02-01T00:48:47;5.10;99.90
9125;DHT22;4597;48.730;9.114;2023-02-01T00:51:15;5.10;99.90
9125;DHT22;4597;48.730;9.114;2023-02-01T00:53:41;5.10;99.90
9125;DHT22;4597;48.730;9.114;2023-02-01T00:56:06;5.20;99.90
9125;DHT22;4597;48.730;9.114;2023-02-01T00:58:33;5.10;99.90
9125;DHT22;4597;48.730;9.114;2023-02-01T01:01:13;5.20;99.90
9125;DHT22;4597;48.730;9.114;2023-02-01T01:03:41;5.20;99.90
9125;DHT22;4597;48.730;9.114;2023-02-01T01:06:11;5.20;99.90
9125;DHT22;4597;48.730;9.114;2023-02-01T01:08:38;5.10;99.90
9125;DHT22;4597;48.730;9.114;2023-02-01T01:11:09;5.10;99.90
9125;DHT22;4597;48.730;9.114;2023-02-01T01:13:35;5.10;99.90
9125;DHT22;4597;48.730;9.114;2023-02-01T01:16:03;5.20;99.90
9125;DHT22;4597;48.730;9.114;2023-02-01T01:18:29;5.20;99.90
9125;DHT22;4597;48.730;9.114;2023-02-01T01:20:55;5.20;99.90
9125;DHT22;4597;48.730;9.114;2023-02-01T01:23:21;5.20;99.90
9125;DHT22;4597;48.730;9.114;2023-02-01T01:25:47;5.20;99.90
9125;DHT22;4597;48.730;9.114;2023-02-01T01:28:12;5.30;99.90
9125;DHT22;4597;48.730;9.114;2023-02-01T01:30:38;5.30;99.90
9125;DHT22;4597;48.730;9.114;2023-02-01T01:33:03;5.30;99.90
9125;DHT22;4597;48.730;9.114;2023-02-01T01:35:30;5.40;99.90
9125;DHT22;4597;48.730;9.114;2023-02-01T01:37:57;5.40;99.90
9125;DHT22;4597;48.730;9.114;2023-02-01T01:40:23;5.40;99.90
9125;DHT22;4597;48.730;9.114;2023-02-01T01:42:49;5.40;99.90
9125;DHT22;4597;48.730;9.114;2023-02-01T01:47:50;5.40;99.90
9125;DHT22;4597;48.730;9.114;2023-02-01T01:50:19;5.40;99.90
9125;DHT22;4597;48.730;9.114;2023-02-01T01:52:49;5.40;99.90
9125;DHT22;4597;48.730;9.114;2023-02-01T01:55:17;5.50;99.90
9125;DHT22;4597;48.730;9.114;2023-02-01T01:57:50;5.50;99.90
9125;DHT22;4597;48.730;9.114;2023-02-01T02:00:18;5.60;99.90
9125;DHT22;4597;48.730;9.114;2023-02-01T02:02:47;5.50;99.90
9125;DHT22;4597;48.730;9.114;2023-02-01T02:05:13;5.50;99.90
9125;DHT22;4597;48.730;9.114;2023-02-01T02:07:43;5.50;99.90
9125;DHT22;4597;48.730;9.114;2023-02-01T02:10:12;5.50;99.90
9125;DHT22;4597;48.730;9.114;2023-02-01T02:12:39;5.50;99.90
9125;DHT22;4597;48.730;9.114;2023-02-01T02:15:08;5.50;99.90
9125;DHT22;4597;48.730;9.114;2023-02-01T02:18:01;5.50;99.90
9125;DHT22;4597;48.730;9.114;2023-02-01T02:23:21;5.50;99.90
9125;DHT22;4597;48.730;9.114;2023-02-01T02:31:30;5.50;99.90
9125;DHT22;4597;48.730;9.114;2023-02-01T02:36:30;5.50;99.90
9125;DHT22;4597;48.730;9.114;2023-02-01T02:39:07;5.50;99.90
9125;DHT22;4597;48.730;9.114;2023-02-01T02:44:47;5.50;99.90
9125;DHT22;4597;48.730;9.114;2023-02-01T02:47:40;5.50;99.90
9125;DHT22;4597;48.730;9.114;2023-02-01T02:53:51;5.60;99.90
9125;DHT22;4597;48.730;9.114;2023-02-01T02:56:10;5.60;99.90
9125;DHT22;4597;48.730;9.114;2023-02-01T02:58:56;5.50;99.90
9125;DHT22;4597;48.730;9.114;2023-02-01T03:01:42;5.60;99.90
9125;DHT22;4597;48.730;9.114;2023-02-01T03:04:26;5.50;99.90
9125;DHT22;4597;48.730;9.114;2023-02-01T03:06:53;5.50;99.90
9125;DHT22;4597;48.730;9.114;2023-02-01T03:09:25;5.50;99.90
9125;DHT22;4597;48.730;9.114;2023-02-01T03:11:56;5.60;99.90
9125;DHT22;4597;48.730;9.114;2023-02-01T03:15:02;5.60;99.90
9125;DHT22;4597;48.730;9.114;2023-02-01T03:17:34;5.60;99.90
9125;DHT22;4597;48.730;9.114;2023-02-01T03:20:03;5.50;99.90
9125;DHT22;4597;48.730;9.114;2023-02-01T03:22:29;5.60;99.90
9125;DHT22;4597;48.730;9.114;2023-02-01T03:25:21;5.60;99.90
9125;DHT22;4597;48.730;9.114;2023-02-01T03:28:01;5.60;99.90
9125;DHT22;4597;48.730;9.114;2023-02-01T03:30:46;5.60;99.90
9125;DHT22;4597;48.730;9.114;2023-02-01T03:33:18;5.60;99.90
9125;DHT22;4597;48.730;9.114;2023-02-01T03:36:05;5.60;99.90
9125;DHT22;4597;48.730;9.114;2023-02-01T03:41:46;5.70;99.90
9125;DHT22;4597;48.730;9.114;2023-02-01T03:44:23;5.70;99.90
9125;DHT22;4597;48.730;9.114;2023-02-01T03:47:10;5.70;99.90
9125;DHT22;4597;48.730;9.114;2023-02-01T03:49:45;5.70;99.90
9125;DHT22;4597;48.730;9.114;2023-02-01T03:52:15;5.70;99.90
9125;DHT22;4597;48.730;9.114;2023-02-01T03:54:43;5.70;99.90
9125;DHT22;4597;48.730;9.114;2023-02-01T03:57:12;5.70;99.90
9125;DHT22;4597;48.730;9.114;2023-02-01T03:59:43;5.70;99.90
9125;DHT22;4597;48.730;9.114;2023-02-01T04:02:09;5.70;99.90
9125;DHT22;4597;48.730;9.114;2023-02-01T04:04:35;5.70;99.90
9125;DHT22;4597;48.730;9.114;2023-02-01T04:07:01;5.70;99.90
9125;DHT22;4597;48.730;9.114;2023-02-01T04:09:27;5.70;99.90
9125;DHT22;4597;48.730;9.114;2023-02-01T04:11:52;5.70;99.90
9125;DHT22;4597;48.730;9.114;2023-02-01T04:14:18;5.70;99.90
9125;DHT22;4597;48.730;9.114;2023-02-01T04:16:43;5.70;99.90
9125;DHT22;4597;48.730;9.114;2023-02-01T04:19:09;5.60;99.90
9125;DHT22;4597;48.730;9.114;2023-02-01T04:21:34;5.60;99.90
9125;DHT22;4597;48.730;9.114;2023-02-01T04:24:00;5.50;99.90
9125;DHT22;4597;48.730;9.114;2023-02-01T04:26:25;5.50;99.90
9125;DHT22;4597;48.730;9.114;2023-02-01T04:28:51;5.60;99.90
9125;DHT22;4597;48.730;9.114;2023-02-01T04:31:18;5.60;99.90
9125;DHT22;4597;48.730;9.114;2023-02-01T04:33:51;5.60;99.90
9125;DHT22;4597;48.730;9.114;2023-02-01T04:36:18;5.60;99.90
9125;DHT22;4597;48.730;9.114;2023-02-01T04:38:47;5.70;99.90
9125;DHT22;4597;48.730;9.114;2023-02-01T04:41:13;5.70;99.90
9125;DHT22;4597;48.730;9.114;2023-02-01T04:43:38;5.70;99.90
9125;DHT22;4597;48.730;9.114;2023-02-01T04:46:04;5.70;99.90
9125;DHT22;4597;48.730;9.114;2023-02-01T04:48:30;5.70;99.90
9125;DHT22;4597;48.730;9.114;2023-02-01T04:50:55;5.60;99.90
9125;DHT22;4597;48.730;9.114;2023-02-01T04:53:21;5.60;99.90
9125;DHT22;4597;48.730;9.114;2023-02-01T04:55:48;5.60;99.90
9125;DHT22;4597;48.730;9.114;2023-02-01T04:58:15;5.60;99.90
9125;DHT22;4597;48.730;9.114;2023-02-01T05:00:40;5.60;99.90
9125;DHT22;4597;48.730;9.114;2023-02-01T05:03:06;5.60;99.90
9125;DHT22;4597;48.730;9.114;2023-02-01T05:05:32;5.60;99.90
9125;DHT22;4597;48.730;9.114;2023-02-01T05:07:57;5.60;99.90
9125;DHT22;4597;48.730;9.114;2023-02-01T05:10:23;5.50;99.90
9125;DHT22;4597;48.730;9.114;2023-02-01T05:12:48;5.40;99.90
9125;DHT22;4597;48.730;9.114;2023-02-01T05:15:32;5.30;99.90
9125;DHT22;4597;48.730;9.114;2023-02-01T05:17:58;5.30;99.90
9125;DHT22;4597;48.730;9.114;2023-02-01T05:20:24;5.30;99.90
9125;DHT22;4597;48.730;9.114;2023-02-01T05:22:49;5.40;99.90
9125;DHT22;4597;48.730;9.114;2023-02-01T05:25:15;5.40;99.90
9125;DHT22;4597;48.730;9.114;2023-02-01T05:27:41;5.40;99.90
9125;DHT22;4597;48.730;9.114;2023-02-01T05:30:07;5.40;99.90
9125;DHT22;4597;48.730;9.114;2023-02-01T05:32:33;5.30;99.90
9125;DHT22;4597;48.730;9.114;2023-02-01T05:34:58;5.40;99.90
9125;DHT22;4597;48.730;9.114;2023-02-01T05:37:24;5.40;99.90
9125;DHT22;4597;48.730;9.114;2023-02-01T05:39:50;5.40;99.90
9125;DHT22;4597;48.730;9.114;2023-02-01T05:42:15;5.40;99.90
9125;DHT22;4597;48.730;9.114;2023-02-01T05:44:41;5.40;99.90
9125;DHT22;4597;48.730;9.114;2023-02-01T05:47:07;5.40;99.90
9125;DHT22;4597;48.730;9.114;2023-02-01T05:49:32;5.40;99.90
9125;DHT22;4597;48.730;9.114;2023-02-01T05:51:58;5.40;99.90
9125;DHT22;4597;48.730;9.114;2023-02-01T05:54:23;5.40;99.90
9125;DHT22;4597;48.730;9.114;2023-02-01T05:56:49;5.30;99.90
9125;DHT22;4597;48.730;9.114;2023-02-01T05:59:14;5.30;99.90
9125;DHT22;4597;48.730;9.114;2023-02-01T06:01:40;5.30;99.90
9125;DHT22;4597;48.730;9.114;2023-02-01T06:04:05;5.30;99.90
9125;DHT22;4597;48.730;9.114;2023-02-01T06:06:31;5.30;99.90
9125;DHT22;4597;48.730;9.114;2023-02-01T06:08:57;5.30;99.90
9125;DHT22;4597;48.730;9.114;2023-02-01T06:11:22;5.30;99.90
9125;DHT22;4597;48.730;9.114;2023-02-01T06:13:48;5.40;99.90
9125;DHT22;4597;48.730;9.114;2023-02-01T06:16:13;5.40;99.90
9125;DHT22;4597;48.730;9.114;2023-02-01T06:18:40;5.40;99.90
9125;DHT22;4597;48.730;9.114;2023-02-01T06:21:07;5.30;99.90
9125;DHT22;4597;48.730;9.114;2023-02-01T06:23:33;5.30;99.90
9125;DHT22;4597;48.730;9.114;2023-02-01T06:26:02;5.30;99.90
9125;DHT22;4597;48.730;9.114;2023-02-01T06:28:29;5.30;99.90
9125;DHT22;4597;48.730;9.114;2023-02-01T06:30:55;5.30;99.90
9125;DHT22;4597;48.730;9.114;2023-02-01T06:33:20;5.40;99.90
9125;DHT22;4597;48.730;9.114;2023-02-01T06:35:46;5.40;99.90
9125;DHT22;4597;48.730;9.114;2023-02-01T06:38:12;5.40;99.90
9125;DHT22;4597;48.730;9.114;2023-02-01T06:40:39;5.30;99.90
9125;DHT22;4597;48.730;9.114;2023-02-01T06:43:05;5.50;99.90
9125;DHT22;4597;48.730;9.114;2023-02-01T06:45:30;5.50;99.90
9125;DHT22;4597;48.730;9.114;2023-02-01T06:47:57;5.50;99.90
9125;DHT22;4597;48.730;9.114;2023-02-01T06:50:23;5.50;99.90
9125;DHT22;4597;48.730;9.114;2023-02-01T06:52:48;5.50;99.90
9125;DHT22;4597;48.730;9.114;2023-02-01T06:55:14;5.60;99.90
9125;DHT22;4597;48.730;9.114;2023-02-01T06:57:39;5.50;99.90
9125;DHT22;4597;48.730;9.114;2023-02-01T07:00:05;5.50;99.90
9125;DHT22;4597;48.730;9.114;2023-02-01T07:02:31;5.50;99.90
9125;DHT22;4597;48.730;9.114;2023-02-01T07:04:57;5.60;99.90
9125;DHT22;4597;48.730;9.114;2023-02-01T07:07:22;5.60;99.90
9125;DHT22;4597;48.730;9.114;2023-02-01T07:09:49;5.60;99.90
9125;DHT22;4597;48.730;9.114;2023-02-01T07:12:15;5.60;99.90
9125;DHT22;4597;48.730;9.114;2023-02-01T07:14:41;5.60;99.90
9125;DHT22;4597;48.730;9.114;2023-02-01T07:17:06;5.60;99.90
9125;DHT22;4597;48.730;9.114;2023-02-01T07:19:32;5.60;99.90
9125;DHT22;4597;48.730;9.114;2023-02-01T07:21:58;5.60;99.90
9125;DHT22;4597;48.730;9.114;2023-02-01T07:24:23;5.60;99.90
9125;DHT22;4597;48.730;9.114;2023-02-01T07:26:49;5.60;99.90
9125;DHT22;4597;48.730;9.114;2023-02-01T07:29:19;5.60;99.90
9125;DHT22;4597;48.730;9.114;2023-02-01T07:31:46;5.60;99.90
9125;DHT22;4597;48.730;9.114;2023-02-01T07:34:11;5.50;99.90
9125;DHT22;4597;48.730;9.114;2023-02-01T07:36:37;5.60;99.90
9125;DHT22;4597;48.730;9.114;2023-02-01T07:39:03;5.70;99.90
9125;DHT22;4597;48.730;9.114;2023-02-01T07:41:29;5.60;99.90
9125;DHT22;4597;48.730;9.114;2023-02-01T07:43:54;5.70;99.90
9125;DHT22;4597;48.730;9.114;2023-02-01T07:46:20;5.60;99.90
9125;DHT22;4597;48.730;9.114;2023-02-01T07:48:45;5.60;99.90
9125;DHT22;4597;48.730;9.114;2023-02-01T07:51:13;5.50;99.90
9125;DHT22;4597;48.730;9.114;2023-02-01T07:53:39;5.50;99.90
9125;DHT22;4597;48.730;9.114;2023-02-01T07:56:14;5.50;99.90
9125;DHT22;4597;48.730;9.114;2023-02-01T07:58:40;5.50;99.90
9125;DHT22;4597;48.730;9.114;2023-02-01T08:01:10;5.50;99.90
9125;DHT22;4597;48.730;9.114;2023-02-01T08:03:49;5.60;99.90
9125;DHT22;4597;48.730;9.114;2023-02-01T08:06:15;5.50;99.90
9125;DHT22;4597;48.730;9.114;2023-02-01T08:08:40;5.40;99.90
9125;DHT22;4597;48.730;9.114;2023-02-01T08:11:06;5.50;99.90
9125;DHT22;4597;48.730;9.114;2023-02-01T08:13:35;5.60;99.90
9125;DHT22;4597;48.730;9.114;2023-02-01T08:16:03;5.60;99.90
9125;DHT22;4597;48.730;9.114;2023-02-01T08:18:29;5.60;99.90
9125;DHT22;4597;48.730;9.114;2023-02-01T08:20:55;5.60;99.90
9125;DHT22;4597;48.730;9.114;2023-02-01T08:23:21;5.70;99.90
9125;DHT22;4597;48.730;9.114;2023-02-01T08:25:47;5.70;99.90
9125;DHT22;4597;48.730;9.114;2023-02-01T08:28:13;5.80;99.90
9125;DHT22;4597;48.730;9.114;2023-02-01T08:30:39;5.80;99.90
9125;DHT22;4597;48.730;9.114;2023-02-01T08:33:07;6.00;99.90
9125;DHT22;4597;48.730;9.114;2023-02-01T08:35:34;6.00;99.90
9125;DHT22;4597;48.730;9.114;2023-02-01T08:38:00;6.00;99.90
9125;DHT22;4597;48.730;9.114;2023-02-01T08:40:26;6.00;99.90
9125;DHT22;4597;48.730;9.114;2023-02-01T08:42:51;6.00;99.90
9125;DHT22;4597;48.730;9.114;2023-02-01T08:45:25;6.00;99.90
9125;DHT22;4597;48.730;9.114;2023-02-01T08:47:52;6.00;99.90
9125;DHT22;4597;48.730;9.114;2023-02-01T08:50:18;6.00;99.90
9125;DHT22;4597;48.730;9.114;2023-02-01T08:52:44;6.00;99.90
9125;DHT22;4597;48.730;9.114;2023-02-01T08:55:10;6.00;99.90
9125;DHT22;4597;48.730;9.114;2023-02-01T08:57:36;6.00;99.90
9125;DHT22;4597;48.730;9.114;2023-02-01T09:00:04;6.00;99.90
9125;DHT22;4597;48.730;9.114;2023-02-01T09:02:30;5.90;99.90
9125;DHT22;4597;48.730;9.114;2023-02-01T09:04:56;5.90;99.90
9125;DHT22;4597;48.730;9.114;2023-02-01T09:07:22;5.80;99.90
9125;DHT22;4597;48.730;9.114;2023-02-01T09:09:47;5.70;99.90
9125;DHT22;4597;48.730;9.114;2023-02-01T09:12:13;5.80;99.90
9125;DHT22;4597;48.730;9.114;2023-02-01T09:14:38;5.70;99.90
9125;DHT22;4597;48.730;9.114;2023-02-01T09:17:04;5.80;99.90
9125;DHT22;4597;48.730;9.114;2023-02-01T09:19:31;5.90;99.90
9125;DHT22;4597;48.730;9.114;2023-02-01T09:21:56;6.00;99.90
9125;DHT22;4597;48.730;9.114;2023-02-01T09:24:22;6.00;99.90
9125;DHT22;4597;48.730;9.114;2023-02-01T09:26:47;6.20;99.90
9125;DHT22;4597;48.730;9.114;2023-02-01T09:29:13;6.20;99.90
9125;DHT22;4597;48.730;9.114;2023-02-01T09:31:39;6.20;99.90
9125;DHT22;4597;48.730;9.114;2023-02-01T09:34:05;6.20;99.90
9125;DHT22;4597;48.730;9.114;2023-02-01T09:36:32;6.30;99.90
9125;DHT22;4597;48.730;9.114;2023-02-01T09:38:58;6.30;99.90
9125;DHT22;4597;48.730;9.114;2023-02-01T09:44:34;6.20;99.90
9125;DHT22;4597;48.730;9.114;2023-02-01T09:47:04;6.30;99.90
9125;DHT22;4597;48.730;9.114;2023-02-01T09:49:37;6.20;99.90
9125;DHT22;4597;48.730;9.114;2023-02-01T09:52:10;6.30;99.90
9125;DHT22;4597;48.730;9.114;2023-02-01T09:54:42;6.30;99.90
9125;DHT22;4597;48.730;9.114;2023-02-01T09:57:15;6.30;99.90
9125;DHT22;4597;48.730;9.114;2023-02-01T09:59:44;6.30;99.90
9125;DHT22;4597;48.730;9.114;2023-02-01T10:02:25;6.30;99.90
9125;DHT22;4597;48.730;9.114;2023-02-01T10:04:54;6.30;99.90
9125;DHT22;4597;48.730;9.114;2023-02-01T10:07:37;6.30;99.90
9125;DHT22;4597;48.730;9.114;2023-02-01T10:10:11;6.20;99.90
9125;DHT22;4597;48.730;9.114;2023-02-01T10:15:30;6.20;99.90
9125;DHT22;4597;48.730;9.114;2023-02-01T10:20:57;6.50;99.90
9125;DHT22;4597;48.730;9.114;2023-02-01T10:28:56;6.60;99.90
9125;DHT22;4597;48.730;9.114;2023-02-01T10:31:26;6.50;99.90
9125;DHT22;4597;48.730;9.114;2023-02-01T10:33:59;6.60;99.90
9125;DHT22;4597;48.730;9.114;2023-02-01T10:36:36;6.80;99.90
9125;DHT22;4597;48.730;9.114;2023-02-01T10:39:12;7.00;99.90
9125;DHT22;4597;48.730;9.114;2023-02-01T10:41:39;7.00;99.90
9125;DHT22;4597;48.730;9.114;2023-02-01T10:44:18;7.00;99.90
9125;DHT22;4597;48.730;9.114;2023-02-01T10:46:45;7.00;99.90
9125;DHT22;4597;48.730;9.114;2023-02-01T10:49:26;7.00;99.90
9125;DHT22;4597;48.730;9.114;2023-02-01T10:54:38;6.80;99.90
9125;DHT22;4597;48.730;9.114;2023-02-01T10:57:20;6.80;99.90
9125;DHT22;4597;48.730;9.114;2023-02-01T10:59:45;6.80;99.90
9125;DHT22;4597;48.730;9.114;2023-02-01T11:02:30;6.80;99.90
9125;DHT22;4597;48.730;9.114;2023-02-01T11:05:14;6.90;99.90
9125;DHT22;4597;48.730;9.114;2023-02-01T11:07:46;7.00;99.90
9125;DHT22;4597;48.730;9.114;2023-02-01T11:10:37;7.10;99.90
9125;DHT22;4597;48.730;9.114;2023-02-01T11:13:04;7.00;99.90
9125;DHT22;4597;48.730;9.114;2023-02-01T11:15:30;7.10;99.90
9125;DHT22;4597;48.730;9.114;2023-02-01T11:17:55;7.10;99.90
9125;DHT22;4597;48.730;9.114;2023-02-01T11:20:40;7.10;99.90
9125;DHT22;4597;48.730;9.114;2023-02-01T11:23:15;7.10;99.90
9125;DHT22;4597;48.730;9.114;2023-02-01T11:25:49;6.90;99.90
9125;DHT22;4597;48.730;9.114;2023-02-01T11:28:16;6.90;99.90
9125;DHT22;4597;48.730;9.114;2023-02-01T11:30:45;6.90;99.90
9125;DHT22;4597;48.730;9.114;2023-02-01T11:33:17;7.00;99.90
9125;DHT22;4597;48.730;9.114;2023-02-01T11:35:44;7.10;99.90
9125;DHT22;4597;48.730;9.114;2023-02-01T11:38:19;7.10;99.90
9125;DHT22;4597;48.730;9.114;2023-02-01T11:40:46;7.10;99.90
9125;DHT22;4597;48.730;9.114;2023-02-01T11:43:27;7.00;99.90
9125;DHT22;4597;48.730;9.114;2023-02-01T11:46:01;7.10;99.90
9125;DHT22;4597;48.730;9.114;2023-02-01T11:48:29;7.10;99.90
9125;DHT22;4597;48.730;9.114;2023-02-01T11:56:29;7.20;99.90
9125;DHT22;4597;48.730;9.114;2023-02-01T11:59:19;7.20;99.90
9125;DHT22;4597;48.730;9.114;2023-02-01T12:07:23;7.10;99.90
9125;DHT22;4597;48.730;9.114;2023-02-01T12:10:16;7.10;99.90
9125;DHT22;4597;48.730;9.114;2023-02-01T12:13:07;7.00;99.90
9125;DHT22;4597;48.730;9.114;2023-02-01T12:24:06;7.10;99.90
9125;DHT22;4597;48.730;9.114;2023-02-01T12:26:42;7.20;99.90
9125;DHT22;4597;48.730;9.114;2023-02-01T12:29:28;7.20;99.90
9125;DHT22;4597;48.730;9.114;2023-02-01T12:32:09;7.30;99.90
9125;DHT22;4597;48.730;9.114;2023-02-01T12:40:20;7.70;99.90
9125;DHT22;4597;48.730;9.114;2023-02-01T12:43:01;7.80;99.90
9125;DHT22;4597;48.730;9.114;2023-02-01T12:45:40;7.70;99.90
9125;DHT22;4597;48.730;9.114;2023-02-01T12:50:52;7.70;99.90
9125;DHT22;4597;48.730;9.114;2023-02-01T12:53:27;7.60;99.90
9125;DHT22;4597;48.730;9.114;2023-02-01T12:55:58;7.60;99.90
9125;DHT22;4597;48.730;9.114;2023-02-01T12:58:32;7.50;99.90
9125;DHT22;4597;48.730;9.114;2023-02-01T13:01:05;7.50;99.90
9125;DHT22;4597;48.730;9.114;2023-02-01T13:09:29;7.30;99.90
9125;DHT22;4597;48.730;9.114;2023-02-01T13:11:59;7.10;99.90
9125;DHT22;4597;48.730;9.114;2023-02-01T13:14:38;7.10;99.90
9125;DHT22;4597;48.730;9.114;2023-02-01T13:17:22;7.00;99.90
9125;DHT22;4597;48.730;9.114;2023-02-01T13:20:16;7.00;99.90
9125;DHT22;4597;48.730;9.114;2023-02-01T13:23:03;6.90;99.90
9125;DHT22;4597;48.730;9.114;2023-02-01T13:25:51;6.80;99.90
9125;DHT22;4597;48.730;9.114;2023-02-01T13:33:54;6.90;99.90
9125;DHT22;4597;48.730;9.114;2023-02-01T13:42:03;7.20;99.90
9125;DHT22;4597;48.730;9.114;2023-02-01T13:44:32;7.20;99.90
9125;DHT22;4597;48.730;9.114;2023-02-01T13:47:02;7.20;99.90
9125;DHT22;4597;48.730;9.114;2023-02-01T13:49:31;7.30;99.90
9125;DHT22;4597;48.730;9.114;2023-02-01T13:51:58;7.50;99.90
9125;DHT22;4597;48.730;9.114;2023-02-01T13:56:56;7.40;99.90
9125;DHT22;4597;48.730;9.114;2023-02-01T13:59:51;7.40;99.90
9125;DHT22;4597;48.730;9.114;2023-02-01T14:07:34;7.30;99.90
9125;DHT22;4597;48.730;9.114;2023-02-01T14:13:13;7.00;99.90
9125;DHT22;4597;48.730;9.114;2023-02-01T14:15:39;6.80;99.90
9125;DHT22;4597;48.730;9.114;2023-02-01T14:23:41;6.90;99.90
9125;DHT22;4597;48.730;9.114;2023-02-01T14:26:09;6.90;99.90
9125;DHT22;4597;48.730;9.114;2023-02-01T14:28:41;6.90;99.90
9125;DHT22;4597;48.730;9.114;2023-02-01T14:34:16;6.90;99.90
9125;DHT22;4597;48.730;9.114;2023-02-01T14:36:59;6.90;99.90
9125;DHT22;4597;48.730;9.114;2023-02-01T14:39:52;6.80;99.90
9125;DHT22;4597;48.730;9.114;2023-02-01T14:42:21;6.70;99.90
9125;DHT22;4597;48.730;9.114;2023-02-01T14:44:48;6.70;99.90
9125;DHT22;4597;48.730;9.114;2023-02-01T14:50:12;6.60;99.90
9125;DHT22;4597;48.730;9.114;2023-02-01T14:52:50;6.60;99.90
9125;DHT22;4597;48.730;9.114;2023-02-01T14:58:30;6.60;99.90
9125;DHT22;4597;48.730;9.114;2023-02-01T15:00:59;6.70;99.90
9125;DHT22;4597;48.730;9.114;2023-02-01T15:05:57;6.70;99.90
9125;DHT22;4597;48.730;9.114;2023-02-01T15:08:30;6.80;99.90
9125;DHT22;4597;48.730;9.114;2023-02-01T15:10:57;6.70;99.90
9125;DHT22;4597;48.730;9.114;2023-02-01T15:13:26;6.80;99.90
9125;DHT22;4597;48.730;9.114;2023-02-01T15:16:13;6.80;99.90
9125;DHT22;4597;48.730;9.114;2023-02-01T15:18:39;6.70;99.90
9125;DHT22;4597;48.730;9.114;2023-02-01T15:21:06;6.70;99.90
9125;DHT22;4597;48.730;9.114;2023-02-01T15:23:33;6.70;99.90
9125;DHT22;4597;48.730;9.114;2023-02-01T15:25:58;6.70;99.90
9125;DHT22;4597;48.730;9.114;2023-02-01T15:28:25;6.80;99.90
9125;DHT22;4597;48.730;9.114;2023-02-01T15:33:20;6.80;99.90
9125;DHT22;4597;48.730;9.114;2023-02-01T15:35:53;6.80;99.90
9125;DHT22;4597;48.730;9.114;2023-02-01T15:43:29;6.80;99.90
9125;DHT22;4597;48.730;9.114;2023-02-01T15:46:00;6.80;99.90
9125;DHT22;4597;48.730;9.114;2023-02-01T15:48:34;6.70;99.90
9125;DHT22;4597;48.730;9.114;2023-02-01T15:51:00;6.70;99.90
9125;DHT22;4597;48.730;9.114;2023-02-01T15:53:27;6.70;99.90
9125;DHT22;4597;48.730;9.114;2023-02-01T15:55:58;6.60;99.90
9125;DHT22;4597;48.730;9.114;2023-02-01T15:58:26;6.60;99.90
9125;DHT22;4597;48.730;9.114;2023-02-01T16:01:01;6.60;99.90
9125;DHT22;4597;48.730;9.114;2023-02-01T16:03:47;6.60;99.90
9125;DHT22;4597;48.730;9.114;2023-02-01T16:08:54;6.60;99.90
9125;DHT22;4597;48.730;9.114;2023-02-01T16:11:32;6.50;99.90
9125;DHT22;4597;48.730;9.114;2023-02-01T16:13:59;6.50;99.90
9125;DHT22;4597;48.730;9.114;2023-02-01T16:16:26;6.50;99.90
9125;DHT22;4597;48.730;9.114;2023-02-01T16:18:51;6.40;99.90
9125;DHT22;4597;48.730;9.114;2023-02-01T16:21:17;6.50;99.90
9125;DHT22;4597;48.730;9.114;2023-02-01T16:23:43;6.50;99.90
9125;DHT22;4597;48.730;9.114;2023-02-01T16:26:08;6.40;99.90
9125;DHT22;4597;48.730;9.114;2023-02-01T16:28:34;6.40;99.90
9125;DHT22;4597;48.730;9.114;2023-02-01T16:31:00;6.50;99.90
9125;DHT22;4597;48.730;9.114;2023-02-01T16:33:26;6.40;99.90
9125;DHT22;4597;48.730;9.114;2023-02-01T16:35:52;6.40;99.90
9125;DHT22;4597;48.730;9.114;2023-02-01T16:38:21;6.40;99.90
9125;DHT22;4597;48.730;9.114;2023-02-01T16:40:48;6.50;99.90
9125;DHT22;4597;48.730;9.114;2023-02-01T16:43:16;6.40;99.90
9125;DHT22;4597;48.730;9.114;2023-02-01T16:45:43;6.40;99.90
9125;DHT22;4597;48.730;9.114;2023-02-01T16:48:21;6.40;99.90
9125;DHT22;4597;48.730;9.114;2023-02-01T16:50:51;6.40;99.90
9125;DHT22;4597;48.730;9.114;2023-02-01T16:53:18;6.40;99.90
9125;DHT22;4597;48.730;9.114;2023-02-01T16:55:43;6.30;99.90
9125;DHT22;4597;48.730;9.114;2023-02-01T16:58:09;6.40;99.90
9125;DHT22;4597;48.730;9.114;2023-02-01T17:00:35;6.40;99.90
9125;DHT22;4597;48.730;9.114;2023-02-01T17:03:03;6.40;99.90
9125;DHT22;4597;48.730;9.114;2023-02-01T17:05:31;6.40;99.90
9125;DHT22;4597;48.730;9.114;2023-02-01T17:08:02;6.40;99.90
9125;DHT22;4597;48.730;9.114;2023-02-01T17:10:31;6.40;99.90
9125;DHT22;4597;48.730;9.114;2023-02-01T17:12:57;6.50;99.90
9125;DHT22;4597;48.730;9.114;2023-02-01T17:15:24;6.50;99.90
9125;DHT22;4597;48.730;9.114;2023-02-01T17:17:51;6.50;99.90
9125;DHT22;4597;48.730;9.114;2023-02-01T17:20:24;6.50;99.90
9125;DHT22;4597;48.730;9.114;2023-02-01T17:22:51;6.50;99.90
9125;DHT22;4597;48.730;9.114;2023-02-01T17:25:18;6.50;99.90
9125;DHT22;4597;48.730;9.114;2023-02-01T17:27:45;6.50;99.90
9125;DHT22;4597;48.730;9.114;2023-02-01T17:30:12;6.50;99.90
9125;DHT22;4597;48.730;9.114;2023-02-01T17:32:38;6.50;99.90
9125;DHT22;4597;48.730;9.114;2023-02-01T17:35:04;6.50;99.90
9125;DHT22;4597;48.730;9.114;2023-02-01T17:37:32;6.40;99.90
9125;DHT22;4597;48.730;9.114;2023-02-01T17:39:59;6.40;99.90
9125;DHT22;4597;48.730;9.114;2023-02-01T17:42:27;6.40;99.90
9125;DHT22;4597;48.730;9.114;2023-02-01T17:47:53;6.40;99.90
9125;DHT22;4597;48.730;9.114;2023-02-01T17:50:18;6.40;99.90
9125;DHT22;4597;48.730;9.114;2023-02-01T17:52:44;6.40;99.90
9125;DHT22;4597;48.730;9.114;2023-02-01T17:55:17;6.40;99.90
9125;DHT22;4597;48.730;9.114;2023-02-01T17:57:43;6.40;99.90
9125;DHT22;4597;48.730;9.114;2023-02-01T18:00:09;6.40;99.90
9125;DHT22;4597;48.730;9.114;2023-02-01T18:02:38;6.50;99.90
9125;DHT22;4597;48.730;9.114;2023-02-01T18:07:57;6.40;99.90
9125;DHT22;4597;48.730;9.114;2023-02-01T18:10:22;6.30;99.90
9125;DHT22;4597;48.730;9.114;2023-02-01T18:12:48;6.30;99.90
9125;DHT22;4597;48.730;9.114;2023-02-01T18:15:16;6.30;99.90
9125;DHT22;4597;48.730;9.114;2023-02-01T18:17:42;6.40;99.90
9125;DHT22;4597;48.730;9.114;2023-02-01T18:20:13;6.30;99.90
9125;DHT22;4597;48.730;9.114;2023-02-01T18:22:40;6.30;99.90
9125;DHT22;4597;48.730;9.114;2023-02-01T18:25:22;6.40;99.90
9125;DHT22;4597;48.730;9.114;2023-02-01T18:27:49;6.40;99.90
9125;DHT22;4597;48.730;9.114;2023-02-01T18:30:17;6.40;99.90
9125;DHT22;4597;48.730;9.114;2023-02-01T18:32:43;6.30;99.90
9125;DHT22;4597;48.730;9.114;2023-02-01T18:35:21;6.40;99.90
9125;DHT22;4597;48.730;9.114;2023-02-01T18:37:47;6.40;99.90
9125;DHT22;4597;48.730;9.114;2023-02-01T18:40:25;6.40;99.90
9125;DHT22;4597;48.730;9.114;2023-02-01T18:42:51;6.40;99.90